sensor_id;sensor_type;location;lat;lon;timestamp;temperature;humidity
24011;DHT22;12217;50.792;4.372;2024-02-16T00:00:24;14.50;99.90
24011;DHT22;12217;50.792;4.372;2024-02-16T00:02:50;14.50;99.90
24011;DHT22;12217;50.792;4.372;2024-02-16T00:05:15;14.50;99.90
24011;DHT22;12217;50.792;4.372;2024-02-16T00:07:41;14.50;99.90
24011;DHT22;12217;50.792;4.372;2024-02-16T00:10:08;14.40;99.90
24011;DHT22;12217;50.792;4.372;2024-02-16T00:12:35;14.30;99.90
24011;DHT22;12217;50.792;4.372;2024-02-16T00:15:01;14.30;99.90
24011;DHT22;12217;50.792;4.372;2024-02-16T00:17:27;14.30;99.90
24011;DHT22;12217;50.792;4.372;2024-02-16T00:19:53;14.30;99.90
24011;DHT22;12217;50.792;4.372;2024-02-16T00:22:19;14.30;99.90
24011;DHT22;12217;50.792;4.372;2024-02-16T00:24:45;14.20;99.90
24011;DHT22;12217;50.792;4.372;2024-02-16T00:27:10;14.20;99.90
24011;DHT22;12217;50.792;4.372;2024-02-16T00:29:36;14.10;99.90
24011;DHT22;12217;50.792;4.372;2024-02-16T00:32:04;14.10;99.90
24011;DHT22;12217;50.792;4.372;2024-02-16T00:34:32;14.10;99.90
24011;DHT22;12217;50.792;4.372;2024-02-16T00:36:57;14.20;99.90
24011;DHT22;12217;50.792;4.372;2024-02-16T00:39:23;14.10;99.90
24011;DHT22;12217;50.792;4.372;2024-02-16T00:41:50;14.20;99.90
24011;DHT22;12217;50.792;4.372;2024-02-16T00:44:16;14.30;99.90
24011;DHT22;12217;50.792;4.372;2024-02-16T00:46:43;14.30;99.90
24011;DHT22;12217;50.792;4.372;2024-02-16T00:49:08;14.20;99.90
24011;DHT22;12217;50.792;4.372;2024-02-16T00:51:36;14.20;99.90
24011;DHT22;12217;50.792;4.372;2024-02-16T00:54:02;14.20;99.90
24011;DHT22;12217;50.792;4.372;2024-02-16T00:56:29;14.20;99.90
24011;DHT22;12217;50.792;4.372;2024-02-16T00:58:54;14.10;99.90
24011;DHT22;12217;50.792;4.372;2024-02-16T01:01:20;14.10;99.90
24011;DHT22;12217;50.792;4.372;2024-02-16T01:03:48;14.10;99.90
24011;DHT22;12217;50.792;4.372;2024-02-16T01:06:14;14.00;99.90
24011;DHT22;12217;50.792;4.372;2024-02-16T01:08:39;14.00;99.90
24011;DHT22;12217;50.792;4.372;2024-02-16T01:11:05;14.00;99.90
24011;DHT22;12217;50.792;4.372;2024-02-16T01:13:30;14.10;99.90
24011;DHT22;12217;50.792;4.372;2024-02-16T01:15:58;14.20;99.90
24011;DHT22;12217;50.792;4.372;2024-02-16T01:18:23;14.10;99.90
24011;DHT22;12217;50.792;4.372;2024-02-16T01:20:49;14.00;99.90
24011;DHT22;12217;50.792;4.372;2024-02-16T01:23:14;14.00;99.90
24011;DHT22;12217;50.792;4.372;2024-02-16T01:25:40;14.00;99.90
24011;DHT22;12217;50.792;4.372;2024-02-16T01:28:06;14.10;99.90
24011;DHT22;12217;50.792;4.372;2024-02-16T01:30:31;14.10;99.90
24011;DHT22;12217;50.792;4.372;2024-02-16T01:32:57;14.10;99.90
24011;DHT22;12217;50.792;4.372;2024-02-16T01:35:23;14.00;99.90
24011;DHT22;12217;50.792;4.372;2024-02-16T01:37:49;14.10;99.90
24011;DHT22;12217;50.792;4.372;2024-02-16T01:40:14;14.10;99.90
24011;DHT22;12217;50.792;4.372;2024-02-16T01:42:48;14.10;99.90
24011;DHT22;12217;50.792;4.372;2024-02-16T01:45:14;14.10;99.90
24011;DHT22;12217;50.792;4.372;2024-02-16T01:47:41;14.10;99.90
24011;DHT22;12217;50.792;4.372;2024-02-16T01:50:09;14.20;99.90
24011;DHT22;12217;50.792;4.372;2024-02-16T01:52:35;14.20;99.90
24011;DHT22;12217;50.792;4.372;2024-02-16T01:55:05;14.10;99.90
24011;DHT22;12217;50.792;4.372;2024-02-16T01:57:40;13.90;99.90
24011;DHT22;12217;50.792;4.372;2024-02-16T02:00:08;14.00;99.90
24011;DHT22;12217;50.792;4.372;2024-02-16T02:02:35;14.00;99.90
24011;DHT22;12217;50.792;4.372;2024-02-16T02:05:01;13.90;99.90
24011;DHT22;12217;50.792;4.372;2024-02-16T02:07:27;13.90;99.90
24011;DHT22;12217;50.792;4.372;2024-02-16T02:09:53;13.90;99.90
24011;DHT22;12217;50.792;4.372;2024-02-16T02:12:19;13.90;99.90
24011;DHT22;12217;50.792;4.372;2024-02-16T02:14:44;14.00;99.90
24011;DHT22;12217;50.792;4.372;2024-02-16T02:17:12;14.00;99.90
24011;DHT22;12217;50.792;4.372;2024-02-16T02:19:37;14.00;99.90
24011;DHT22;12217;50.792;4.372;2024-02-16T02:22:03;14.10;99.90
24011;DHT22;12217;50.792;4.372;2024-02-16T02:24:29;14.10;99.90
24011;DHT22;12217;50.792;4.372;2024-02-16T02:26:54;14.20;99.90
24011;DHT22;12217;50.792;4.372;2024-02-16T02:29:20;14.20;99.90
24011;DHT22;12217;50.792;4.372;2024-02-16T02:31:45;14.20;99.90
24011;DHT22;12217;50.792;4.372;2024-02-16T02:34:11;14.20;99.90
24011;DHT22;12217;50.792;4.372;2024-02-16T02:36:37;14.20;99.90
24011;DHT22;12217;50.792;4.372;2024-02-16T02:39:03;14.20;99.90
24011;DHT22;12217;50.792;4.372;2024-02-16T02:41:28;14.10;99.90
24011;DHT22;12217;50.792;4.372;2024-02-16T02:43:54;14.10;99.90
24011;DHT22;12217;50.792;4.372;2024-02-16T02:46:22;14.00;99.90
24011;DHT22;12217;50.792;4.372;2024-02-16T02:48:49;14.10;99.90
24011;DHT22;12217;50.792;4.372;2024-02-16T02:51:15;14.20;99.90
24011;DHT22;12217;50.792;4.372;2024-02-16T02:53:41;14.20;99.90
24011;DHT22;12217;50.792;4.372;2024-02-16T02:56:06;14.20;99.90
24011;DHT22;12217;50.792;4.372;2024-02-16T02:58:33;14.30;99.90
24011;DHT22;12217;50.792;4.372;2024-02-16T03:00:58;14.20;99.90
24011;DHT22;12217;50.792;4.372;2024-02-16T03:03:24;14.20;99.90
24011;DHT22;12217;50.792;4.372;2024-02-16T03:05:50;14.30;99.90
24011;DHT22;12217;50.792;4.372;2024-02-16T03:08:15;14.20;99.90
24011;DHT22;12217;50.792;4.372;2024-02-16T03:10:41;14.30;99.90
24011;DHT22;12217;50.792;4.372;2024-02-16T03:13:07;14.20;99.90
24011;DHT22;12217;50.792;4.372;2024-02-16T03:15:34;14.20;99.90
24011;DHT22;12217;50.792;4.372;2024-02-16T03:18:01;14.20;99.90
24011;DHT22;12217;50.792;4.372;2024-02-16T03:20:27;14.20;99.90
24011;DHT22;12217;50.792;4.372;2024-02-16T03:22:52;14.20;99.90
24011;DHT22;12217;50.792;4.372;2024-02-16T03:25:18;14.20;99.90
24011;DHT22;12217;50.792;4.372;2024-02-16T03:27:44;14.10;99.90
24011;DHT22;12217;50.792;4.372;2024-02-16T03:30:10;14.00;99.90
24011;DHT22;12217;50.792;4.372;2024-02-16T03:32:36;14.00;99.90
24011;DHT22;12217;50.792;4.372;2024-02-16T03:35:01;14.10;99.90
24011;DHT22;12217;50.792;4.372;2024-02-16T03:37:27;14.10;99.90
24011;DHT22;12217;50.792;4.372;2024-02-16T03:39:53;14.20;99.90
24011;DHT22;12217;50.792;4.372;2024-02-16T03:42:19;14.10;99.90
24011;DHT22;12217;50.792;4.372;2024-02-16T03:44:45;14.00;99.90
24011;DHT22;12217;50.792;4.372;2024-02-16T03:47:11;14.10;99.90
24011;DHT22;12217;50.792;4.372;2024-02-16T03:49:38;14.20;99.90
24011;DHT22;12217;50.792;4.372;2024-02-16T03:52:04;14.30;99.90
24011;DHT22;12217;50.792;4.372;2024-02-16T03:54:30;14.30;99.90
24011;DHT22;12217;50.792;4.372;2024-02-16T03:56:56;14.20;99.90
24011;DHT22;12217;50.792;4.372;2024-02-16T03:59:22;14.20;99.90
24011;DHT22;12217;50.792;4.372;2024-02-16T04:01:49;14.20;99.90
24011;DHT22;12217;50.792;4.372;2024-02-16T04:04:15;14.30;99.90
24011;DHT22;12217;50.792;4.372;2024-02-16T04:06:40;14.30;99.90
24011;DHT22;12217;50.792;4.372;2024-02-16T04:09:06;14.40;99.90
24011;DHT22;12217;50.792;4.372;2024-02-16T04:11:32;14.30;99.90
24011;DHT22;12217;50.792;4.372;2024-02-16T04:13:58;14.30;99.90
24011;DHT22;12217;50.792;4.372;2024-02-16T04:16:24;14.20;99.90
24011;DHT22;12217;50.792;4.372;2024-02-16T04:18:53;14.30;99.90
24011;DHT22;12217;50.792;4.372;2024-02-16T04:21:20;14.40;99.90
24011;DHT22;12217;50.792;4.372;2024-02-16T04:23:46;14.50;99.90
24011;DHT22;12217;50.792;4.372;2024-02-16T04:26:12;14.40;99.90
24011;DHT22;12217;50.792;4.372;2024-02-16T04:28:37;14.30;99.90
24011;DHT22;12217;50.792;4.372;2024-02-16T04:31:03;14.40;99.90
24011;DHT22;12217;50.792;4.372;2024-02-16T04:33:29;14.50;99.90
24011;DHT22;12217;50.792;4.372;2024-02-16T04:35:57;14.50;99.90
24011;DHT22;12217;50.792;4.372;2024-02-16T04:38:22;14.50;99.90
24011;DHT22;12217;50.792;4.372;2024-02-16T04:40:48;14.50;99.90
24011;DHT22;12217;50.792;4.372;2024-02-16T04:43:13;14.50;99.90
24011;DHT22;12217;50.792;4.372;2024-02-16T04:45:39;14.60;99.90
24011;DHT22;12217;50.792;4.372;2024-02-16T04:48:05;14.70;99.90
24011;DHT22;12217;50.792;4.372;2024-02-16T04:50:35;14.80;99.90
24011;DHT22;12217;50.792;4.372;2024-02-16T04:53:01;14.80;99.90
24011;DHT22;12217;50.792;4.372;2024-02-16T04:55:29;14.80;99.90
24011;DHT22;12217;50.792;4.372;2024-02-16T04:57:56;14.70;99.90
24011;DHT22;12217;50.792;4.372;2024-02-16T05:00:22;14.70;99.90
24011;DHT22;12217;50.792;4.372;2024-02-16T05:02:48;14.60;99.90
24011;DHT22;12217;50.792;4.372;2024-02-16T05:05:13;14.60;99.90
24011;DHT22;12217;50.792;4.372;2024-02-16T05:07:42;14.80;99.90
24011;DHT22;12217;50.792;4.372;2024-02-16T05:10:10;14.80;99.90
24011;DHT22;12217;50.792;4.372;2024-02-16T05:12:36;14.80;99.90
24011;DHT22;12217;50.792;4.372;2024-02-16T05:15:02;14.80;99.90
24011;DHT22;12217;50.792;4.372;2024-02-16T05:17:29;14.80;99.90
24011;DHT22;12217;50.792;4.372;2024-02-16T05:19:54;14.70;99.90
24011;DHT22;12217;50.792;4.372;2024-02-16T05:22:20;14.80;99.90
24011;DHT22;12217;50.792;4.372;2024-02-16T05:24:47;14.70;99.90
24011;DHT22;12217;50.792;4.372;2024-02-16T05:27:13;14.70;99.90
24011;DHT22;12217;50.792;4.372;2024-02-16T05:29:40;14.70;99.90
24011;DHT22;12217;50.792;4.372;2024-02-16T05:32:06;14.70;99.90
24011;DHT22;12217;50.792;4.372;2024-02-16T05:34:31;14.70;99.90
24011;DHT22;12217;50.792;4.372;2024-02-16T05:37:04;14.80;99.90
24011;DHT22;12217;50.792;4.372;2024-02-16T05:39:31;14.80;99.90
24011;DHT22;12217;50.792;4.372;2024-02-16T05:42:00;14.80;99.90
24011;DHT22;12217;50.792;4.372;2024-02-16T05:44:26;14.90;99.90
24011;DHT22;12217;50.792;4.372;2024-02-16T05:46:52;14.90;99.90
24011;DHT22;12217;50.792;4.372;2024-02-16T05:49:17;14.90;99.90
24011;DHT22;12217;50.792;4.372;2024-02-16T05:51:43;14.80;99.90
24011;DHT22;12217;50.792;4.372;2024-02-16T05:54:27;14.80;99.90
24011;DHT22;12217;50.792;4.372;2024-02-16T05:56:52;14.70;99.90
24011;DHT22;12217;50.792;4.372;2024-02-16T05:59:18;14.80;99.90
24011;DHT22;12217;50.792;4.372;2024-02-16T06:01:44;14.80;99.90
24011;DHT22;12217;50.792;4.372;2024-02-16T06:04:09;14.80;99.90
24011;DHT22;12217;50.792;4.372;2024-02-16T06:06:36;14.60;99.90
24011;DHT22;12217;50.792;4.372;2024-02-16T06:09:01;14.70;99.90
24011;DHT22;12217;50.792;4.372;2024-02-16T06:11:27;14.70;99.90
24011;DHT22;12217;50.792;4.372;2024-02-16T06:13:52;14.70;99.90
24011;DHT22;12217;50.792;4.372;2024-02-16T06:16:18;14.60;99.90
24011;DHT22;12217;50.792;4.372;2024-02-16T06:18:43;14.50;99.90
24011;DHT22;12217;50.792;4.372;2024-02-16T06:21:09;14.50;99.90
24011;DHT22;12217;50.792;4.372;2024-02-16T06:23:35;14.30;99.90
24011;DHT22;12217;50.792;4.372;2024-02-16T06:26:00;14.50;99.90
24011;DHT22;12217;50.792;4.372;2024-02-16T06:28:26;14.30;99.90
24011;DHT22;12217;50.792;4.372;2024-02-16T06:30:52;14.20;99.90
24011;DHT22;12217;50.792;4.372;2024-02-16T06:33:17;14.20;99.90
24011;DHT22;12217;50.792;4.372;2024-02-16T06:35:43;14.20;99.90
24011;DHT22;12217;50.792;4.372;2024-02-16T06:38:09;14.20;99.90
24011;DHT22;12217;50.792;4.372;2024-02-16T06:40:34;14.30;99.90
24011;DHT22;12217;50.792;4.372;2024-02-16T06:43:00;14.40;99.90
24011;DHT22;12217;50.792;4.372;2024-02-16T06:45:26;14.50;99.90
24011;DHT22;12217;50.792;4.372;2024-02-16T06:47:51;14.40;99.90
24011;DHT22;12217;50.792;4.372;2024-02-16T06:50:17;14.40;99.90
24011;DHT22;12217;50.792;4.372;2024-02-16T06:52:42;14.30;99.90
24011;DHT22;12217;50.792;4.372;2024-02-16T06:55:08;14.40;99.90
24011;DHT22;12217;50.792;4.372;2024-02-16T06:57:33;14.30;99.90
24011;DHT22;12217;50.792;4.372;2024-02-16T06:59:59;14.30;99.90
24011;DHT22;12217;50.792;4.372;2024-02-16T07:02:25;14.30;99.90
24011;DHT22;12217;50.792;4.372;2024-02-16T07:04:50;14.20;99.90
24011;DHT22;12217;50.792;4.372;2024-02-16T07:07:16;14.30;99.90
24011;DHT22;12217;50.792;4.372;2024-02-16T07:09:42;14.20;99.90
24011;DHT22;12217;50.792;4.372;2024-02-16T07:12:07;14.30;99.90
24011;DHT22;12217;50.792;4.372;2024-02-16T07:14:33;14.30;99.90
24011;DHT22;12217;50.792;4.372;2024-02-16T07:16:58;14.30;99.90
24011;DHT22;12217;50.792;4.372;2024-02-16T07:19:24;14.40;99.90
24011;DHT22;12217;50.792;4.372;2024-02-16T07:21:50;14.30;99.90
24011;DHT22;12217;50.792;4.372;2024-02-16T07:24:16;14.40;99.90
24011;DHT22;12217;50.792;4.372;2024-02-16T07:26:42;14.40;99.90
24011;DHT22;12217;50.792;4.372;2024-02-16T07:29:07;14.50;99.90
24011;DHT22;12217;50.792;4.372;2024-02-16T07:31:33;14.50;99.90
24011;DHT22;12217;50.792;4.372;2024-02-16T07:34:00;14.50;99.90
24011;DHT22;12217;50.792;4.372;2024-02-16T07:36:26;14.50;99.90
24011;DHT22;12217;50.792;4.372;2024-02-16T07:38:51;14.40;99.90
24011;DHT22;12217;50.792;4.372;2024-02-16T07:41:17;14.30;99.90
24011;DHT22;12217;50.792;4.372;2024-02-16T07:43:42;14.20;99.90
24011;DHT22;12217;50.792;4.372;2024-02-16T07:46:08;14.20;99.90
24011;DHT22;12217;50.792;4.372;2024-02-16T07:48:34;14.30;99.90
24011;DHT22;12217;50.792;4.372;2024-02-16T07:51:00;14.40;99.90
24011;DHT22;12217;50.792;4.372;2024-02-16T07:53:28;14.30;99.90
24011;DHT22;12217;50.792;4.372;2024-02-16T07:55:54;14.30;99.90
24011;DHT22;12217;50.792;4.372;2024-02-16T07:58:19;14.30;99.90
24011;DHT22;12217;50.792;4.372;2024-02-16T08:00:45;14.10;99.90
24011;DHT22;12217;50.792;4.372;2024-02-16T08:03:11;14.20;99.90
24011;DHT22;12217;50.792;4.372;2024-02-16T08:05:36;14.10;99.90
24011;DHT22;12217;50.792;4.372;2024-02-16T08:08:02;14.10;99.90
24011;DHT22;12217;50.792;4.372;2024-02-16T08:10:28;14.00;99.90
24011;DHT22;12217;50.792;4.372;2024-02-16T08:12:54;14.20;99.90
24011;DHT22;12217;50.792;4.372;2024-02-16T08:15:20;14.20;99.90
24011;DHT22;12217;50.792;4.372;2024-02-16T08:17:49;14.30;99.90
24011;DHT22;12217;50.792;4.372;2024-02-16T08:20:16;14.40;99.90
24011;DHT22;12217;50.792;4.372;2024-02-16T08:22:41;14.50;99.90
24011;DHT22;12217;50.792;4.372;2024-02-16T08:25:07;14.60;99.90
24011;DHT22;12217;50.792;4.372;2024-02-16T08:27:33;14.70;99.90
24011;DHT22;12217;50.792;4.372;2024-02-16T08:29:58;14.50;99.90
24011;DHT22;12217;50.792;4.372;2024-02-16T08:32:24;14.20;99.90
24011;DHT22;12217;50.792;4.372;2024-02-16T08:34:51;14.10;99.90
24011;DHT22;12217;50.792;4.372;2024-02-16T08:37:17;14.00;99.90
24011;DHT22;12217;50.792;4.372;2024-02-16T08:39:43;14.00;99.90
24011;DHT22;12217;50.792;4.372;2024-02-16T08:42:09;13.90;99.90
24011;DHT22;12217;50.792;4.372;2024-02-16T08:44:36;13.90;99.90
24011;DHT22;12217;50.792;4.372;2024-02-16T08:47:02;13.80;99.90
24011;DHT22;12217;50.792;4.372;2024-02-16T08:49:28;13.80;99.90
24011;DHT22;12217;50.792;4.372;2024-02-16T08:51:54;13.80;99.90
24011;DHT22;12217;50.792;4.372;2024-02-16T08:54:19;13.80;99.90
24011;DHT22;12217;50.792;4.372;2024-02-16T08:56:45;13.80;99.90
24011;DHT22;12217;50.792;4.372;2024-02-16T08:59:11;13.90;99.90
24011;DHT22;12217;50.792;4.372;2024-02-16T09:01:37;13.90;99.90
24011;DHT22;12217;50.792;4.372;2024-02-16T09:04:04;14.00;99.90
24011;DHT22;12217;50.792;4.372;2024-02-16T09:06:30;13.90;99.90
24011;DHT22;12217;50.792;4.372;2024-02-16T09:08:56;14.00;99.90
24011;DHT22;12217;50.792;4.372;2024-02-16T09:11:24;14.00;99.90
24011;DHT22;12217;50.792;4.372;2024-02-16T09:13:50;14.10;99.90
24011;DHT22;12217;50.792;4.372;2024-02-16T09:16:16;14.10;99.90
24011;DHT22;12217;50.792;4.372;2024-02-16T09:18:42;14.00;99.90
24011;DHT22;12217;50.792;4.372;2024-02-16T09:21:08;14.00;99.90
24011;DHT22;12217;50.792;4.372;2024-02-16T09:23:36;14.00;99.90
24011;DHT22;12217;50.792;4.372;2024-02-16T09:26:01;13.90;99.90
24011;DHT22;12217;50.792;4.372;2024-02-16T09:28:28;13.90;99.90
24011;DHT22;12217;50.792;4.372;2024-02-16T09:30:55;13.90;99.90
24011;DHT22;12217;50.792;4.372;2024-02-16T09:33:21;14.00;99.90
24011;DHT22;12217;50.792;4.372;2024-02-16T09:35:47;13.90;99.90
24011;DHT22;12217;50.792;4.372;2024-02-16T09:38:13;13.80;99.90
24011;DHT22;12217;50.792;4.372;2024-02-16T09:40:39;13.70;99.90
24011;DHT22;12217;50.792;4.372;2024-02-16T09:43:04;13.80;99.90
24011;DHT22;12217;50.792;4.372;2024-02-16T09:45:30;14.00;99.90
24011;DHT22;12217;50.792;4.372;2024-02-16T09:47:58;14.20;99.90
24011;DHT22;12217;50.792;4.372;2024-02-16T09:50:24;14.40;99.90
24011;DHT22;12217;50.792;4.372;2024-02-16T09:52:50;14.70;99.90
24011;DHT22;12217;50.792;4.372;2024-02-16T09:55:17;14.70;99.90
24011;DHT22;12217;50.792;4.372;2024-02-16T09:57:46;14.60;99.90
24011;DHT22;12217;50.792;4.372;2024-02-16T10:00:13;14.70;99.90
24011;DHT22;12217;50.792;4.372;2024-02-16T10:02:45;14.70;99.90
24011;DHT22;12217;50.792;4.372;2024-02-16T10:05:16;14.70;99.90
24011;DHT22;12217;50.792;4.372;2024-02-16T10:07:43;14.80;99.90
24011;DHT22;12217;50.792;4.372;2024-02-16T10:10:28;15.00;99.90
24011;DHT22;12217;50.792;4.372;2024-02-16T10:13:03;15.00;99.90
24011;DHT22;12217;50.792;4.372;2024-02-16T10:15:30;14.90;99.90
24011;DHT22;12217;50.792;4.372;2024-02-16T10:17:59;14.90;99.90
24011;DHT22;12217;50.792;4.372;2024-02-16T10:20:25;14.90;99.90
24011;DHT22;12217;50.792;4.372;2024-02-16T10:23:11;14.90;99.90
24011;DHT22;12217;50.792;4.372;2024-02-16T10:25:38;14.90;99.90
24011;DHT22;12217;50.792;4.372;2024-02-16T10:28:08;15.00;99.90
24011;DHT22;12217;50.792;4.372;2024-02-16T10:30:38;15.10;99.90
24011;DHT22;12217;50.792;4.372;2024-02-16T10:33:07;15.00;99.90
24011;DHT22;12217;50.792;4.372;2024-02-16T10:35:34;15.10;99.90
24011;DHT22;12217;50.792;4.372;2024-02-16T10:38:05;14.90;99.90
24011;DHT22;12217;50.792;4.372;2024-02-16T10:40:38;15.10;99.90
24011;DHT22;12217;50.792;4.372;2024-02-16T10:43:03;15.10;99.90
24011;DHT22;12217;50.792;4.372;2024-02-16T10:45:33;15.20;99.90
24011;DHT22;12217;50.792;4.372;2024-02-16T10:47:59;15.10;99.90
24011;DHT22;12217;50.792;4.372;2024-02-16T10:50:25;15.20;99.90
24011;DHT22;12217;50.792;4.372;2024-02-16T10:52:52;15.10;99.90
24011;DHT22;12217;50.792;4.372;2024-02-16T10:55:19;15.10;99.90
24011;DHT22;12217;50.792;4.372;2024-02-16T10:57:44;15.00;99.90
24011;DHT22;12217;50.792;4.372;2024-02-16T11:00:10;14.80;99.90
24011;DHT22;12217;50.792;4.372;2024-02-16T11:02:55;14.70;99.90
24011;DHT22;12217;50.792;4.372;2024-02-16T11:05:41;14.70;99.90
24011;DHT22;12217;50.792;4.372;2024-02-16T11:08:15;14.70;99.90
24011;DHT22;12217;50.792;4.372;2024-02-16T11:10:52;14.40;99.90
24011;DHT22;12217;50.792;4.372;2024-02-16T11:13:22;14.40;99.90
24011;DHT22;12217;50.792;4.372;2024-02-16T11:16:00;14.50;99.90
24011;DHT22;12217;50.792;4.372;2024-02-16T11:18:29;14.60;99.90
24011;DHT22;12217;50.792;4.372;2024-02-16T11:20:55;14.40;99.90
24011;DHT22;12217;50.792;4.372;2024-02-16T11:23:28;14.50;99.90
24011;DHT22;12217;50.792;4.372;2024-02-16T11:26:03;14.50;99.90
24011;DHT22;12217;50.792;4.372;2024-02-16T11:28:31;14.50;99.90
24011;DHT22;12217;50.792;4.372;2024-02-16T11:30:57;14.40;99.90
24011;DHT22;12217;50.792;4.372;2024-02-16T11:33:22;14.50;99.90
24011;DHT22;12217;50.792;4.372;2024-02-16T11:35:59;14.50;99.90
24011;DHT22;12217;50.792;4.372;2024-02-16T11:38:26;14.60;99.90
24011;DHT22;12217;50.792;4.372;2024-02-16T11:43:25;14.70;99.90
24011;DHT22;12217;50.792;4.372;2024-02-16T11:45:51;14.70;99.90
24011;DHT22;12217;50.792;4.372;2024-02-16T11:48:22;14.70;99.90
24011;DHT22;12217;50.792;4.372;2024-02-16T11:51:09;14.90;99.90
24011;DHT22;12217;50.792;4.372;2024-02-16T11:53:34;15.10;99.90
24011;DHT22;12217;50.792;4.372;2024-02-16T11:56:00;15.20;99.90
24011;DHT22;12217;50.792;4.372;2024-02-16T11:58:25;15.30;99.90
24011;DHT22;12217;50.792;4.372;2024-02-16T12:00:51;15.10;99.90
24011;DHT22;12217;50.792;4.372;2024-02-16T12:03:21;15.00;99.90
24011;DHT22;12217;50.792;4.372;2024-02-16T12:05:58;15.00;99.90
24011;DHT22;12217;50.792;4.372;2024-02-16T12:08:31;14.90;99.90
24011;DHT22;12217;50.792;4.372;2024-02-16T12:10:57;14.70;99.90
24011;DHT22;12217;50.792;4.372;2024-02-16T12:13:22;14.70;99.90
24011;DHT22;12217;50.792;4.372;2024-02-16T12:15:51;14.70;99.90
24011;DHT22;12217;50.792;4.372;2024-02-16T12:18:24;14.60;99.90
24011;DHT22;12217;50.792;4.372;2024-02-16T12:21:06;14.60;99.90
24011;DHT22;12217;50.792;4.372;2024-02-16T12:23:33;14.70;99.90
24011;DHT22;12217;50.792;4.372;2024-02-16T12:26:02;14.50;99.90
24011;DHT22;12217;50.792;4.372;2024-02-16T12:28:29;14.40;99.90
24011;DHT22;12217;50.792;4.372;2024-02-16T12:30:58;14.50;99.90
24011;DHT22;12217;50.792;4.372;2024-02-16T12:33:24;14.60;99.90
24011;DHT22;12217;50.792;4.372;2024-02-16T12:35:50;14.80;99.90
24011;DHT22;12217;50.792;4.372;2024-02-16T12:38:16;14.90;99.90
24011;DHT22;12217;50.792;4.372;2024-02-16T12:40:43;14.90;99.90
24011;DHT22;12217;50.792;4.372;2024-02-16T12:43:09;14.70;99.90
24011;DHT22;12217;50.792;4.372;2024-02-16T12:45:37;14.70;99.90
24011;DHT22;12217;50.792;4.372;2024-02-16T12:48:02;14.70;99.90
24011;DHT22;12217;50.792;4.372;2024-02-16T12:50:30;14.70;99.90
24011;DHT22;12217;50.792;4.372;2024-02-16T12:52:56;14.60;99.90
24011;DHT22;12217;50.792;4.372;2024-02-16T12:55:22;14.40;99.90
24011;DHT22;12217;50.792;4.372;2024-02-16T12:57:49;14.20;99.90
24011;DHT22;12217;50.792;4.372;2024-02-16T13:00:15;14.20;99.90
24011;DHT22;12217;50.792;4.372;2024-02-16T13:02:41;14.20;99.90
24011;DHT22;12217;50.792;4.372;2024-02-16T13:05:06;14.10;99.90
24011;DHT22;12217;50.792;4.372;2024-02-16T13:07:33;14.00;99.90
24011;DHT22;12217;50.792;4.372;2024-02-16T13:09:59;14.20;99.90
24011;DHT22;12217;50.792;4.372;2024-02-16T13:12:25;14.30;99.90
24011;DHT22;12217;50.792;4.372;2024-02-16T13:14:50;14.20;99.90
24011;DHT22;12217;50.792;4.372;2024-02-16T13:17:16;14.20;99.90
24011;DHT22;12217;50.792;4.372;2024-02-16T13:19:42;14.10;99.90
24011;DHT22;12217;50.792;4.372;2024-02-16T13:22:08;14.10;99.90
24011;DHT22;12217;50.792;4.372;2024-02-16T13:24:34;14.20;99.90
24011;DHT22;12217;50.792;4.372;2024-02-16T13:27:00;14.20;99.90
24011;DHT22;12217;50.792;4.372;2024-02-16T13:29:27;14.20;99.90
24011;DHT22;12217;50.792;4.372;2024-02-16T13:31:53;14.30;99.90
24011;DHT22;12217;50.792;4.372;2024-02-16T13:34:18;14.40;99.90
24011;DHT22;12217;50.792;4.372;2024-02-16T13:36:44;14.50;99.90
24011;DHT22;12217;50.792;4.372;2024-02-16T13:39:09;14.50;99.90
24011;DHT22;12217;50.792;4.372;2024-02-16T13:41:35;14.40;99.90
24011;DHT22;12217;50.792;4.372;2024-02-16T13:44:01;14.50;99.90
24011;DHT22;12217;50.792;4.372;2024-02-16T13:46:27;14.70;99.90
24011;DHT22;12217;50.792;4.372;2024-02-16T13:48:52;14.80;99.90
24011;DHT22;12217;50.792;4.372;2024-02-16T13:51:18;14.80;99.90
24011;DHT22;12217;50.792;4.372;2024-02-16T13:53:44;14.70;99.90
24011;DHT22;12217;50.792;4.372;2024-02-16T13:56:10;14.50;99.90
24011;DHT22;12217;50.792;4.372;2024-02-16T13:58:36;14.30;99.90
24011;DHT22;12217;50.792;4.372;2024-02-16T14:01:02;14.30;99.90
24011;DHT22;12217;50.792;4.372;2024-02-16T14:03:29;14.30;99.90
24011;DHT22;12217;50.792;4.372;2024-02-16T14:05:55;14.50;99.90
24011;DHT22;12217;50.792;4.372;2024-02-16T14:08:21;14.40;99.90
24011;DHT22;12217;50.792;4.372;2024-02-16T14:10:48;14.40;99.90
24011;DHT22;12217;50.792;4.372;2024-02-16T14:13:13;14.40;99.90
24011;DHT22;12217;50.792;4.372;2024-02-16T14:15:39;14.50;99.90
24011;DHT22;12217;50.792;4.372;2024-02-16T14:18:05;14.50;99.90
24011;DHT22;12217;50.792;4.372;2024-02-16T14:20:32;14.50;99.90
24011;DHT22;12217;50.792;4.372;2024-02-16T14:22:58;14.50;99.90
24011;DHT22;12217;50.792;4.372;2024-02-16T14:25:24;14.50;99.90
24011;DHT22;12217;50.792;4.372;2024-02-16T14:27:51;14.50;99.90
24011;DHT22;12217;50.792;4.372;2024-02-16T14:30:16;14.40;99.90
24011;DHT22;12217;50.792;4.372;2024-02-16T14:32:42;14.30;99.90
24011;DHT22;12217;50.792;4.372;2024-02-16T14:35:08;14.40;99.90
24011;DHT22;12217;50.792;4.372;2024-02-16T14:37:34;14.50;99.90
24011;DHT22;12217;50.792;4.372;2024-02-16T14:40:01;14.70;99.90
24011;DHT22;12217;50.792;4.372;2024-02-16T14:42:27;14.80;99.90
24011;DHT22;12217;50.792;4.372;2024-02-16T14:44:54;14.80;99.90
24011;DHT22;12217;50.792;4.372;2024-02-16T14:47:19;14.80;99.90
24011;DHT22;12217;50.792;4.372;2024-02-16T14:49:47;14.60;99.90
24011;DHT22;12217;50.792;4.372;2024-02-16T14:52:12;14.60;99.90
24011;DHT22;12217;50.792;4.372;2024-02-16T14:54:38;14.80;99.90
24011;DHT22;12217;50.792;4.372;2024-02-16T14:57:05;15.00;99.90
24011;DHT22;12217;50.792;4.372;2024-02-16T14:59:31;15.10;99.90
24011;DHT22;12217;50.792;4.372;2024-02-16T15:01:56;15.10;99.90
24011;DHT22;12217;50.792;4.372;2024-02-16T15:04:23;15.20;99.90
24011;DHT22;12217;50.792;4.372;2024-02-16T15:06:48;15.20;99.90
24011;DHT22;12217;50.792;4.372;2024-02-16T15:09:14;15.20;99.90
24011;DHT22;12217;50.792;4.372;2024-02-16T15:11:39;15.30;99.90
24011;DHT22;12217;50.792;4.372;2024-02-16T15:14:05;15.20;99.90
24011;DHT22;12217;50.792;4.372;2024-02-16T15:16:31;15.20;99.90
24011;DHT22;12217;50.792;4.372;2024-02-16T15:18:56;15.20;99.90
24011;DHT22;12217;50.792;4.372;2024-02-16T15:21:23;15.10;99.90
24011;DHT22;12217;50.792;4.372;2024-02-16T15:23:49;15.10;99.90
24011;DHT22;12217;50.792;4.372;2024-02-16T15:26:14;14.90;99.90
24011;DHT22;12217;50.792;4.372;2024-02-16T15:28:40;14.80;99.90